Time;durP1;ratioP1;P1;durP2;ratioP2;P2;SDS_P1;SDS_P2;PMS_P1;PMS_P2;Temp;Humidity;BMP_temperature;BMP_pressure;BME280_temperature;BME280_humidity;BME280_pressure;Samples;Min_cycle;Max_cycle;Signal;HPM_P1;HPM_P2
2022/05/28 00:02:02;;;;;;;3.28;0.80;;;;;;;;;;5031723;28;20132;-52
2022/05/28 00:04:28;;;;;;;3.88;0.70;;;;;;;;;;5028034;28;20034;-55
2022/05/28 00:06:54;;;;;;;3.55;0.90;;;;;;;;;;5045485;28;20048;-52
2022/05/28 00:09:20;;;;;;;3.40;0.80;;;;;;;;;;5031970;28;20026;-52
2022/05/28 00:11:46;;;;;;;3.15;0.82;;;;;;;;;;5029592;28;20027;-53
2022/05/28 00:14:12;;;;;;;7.63;1.52;;;;;;;;;;5023040;28;20025;-52
2022/05/28 00:16:41;;;;;;;1.88;0.90;;;;;;;;;;5020980;28;20048;-53
2022/05/28 00:19:07;;;;;;;5.43;1.08;;;;;;;;;;5027951;28;20147;-53
2022/05/28 00:21:34;;;;;;;2.83;1.45;;;;;;;;;;5029173;28;20401;-53
2022/05/28 00:24:00;;;;;;;8.75;1.10;;;;;;;;;;5030160;28;20040;-52
2022/05/28 00:26:26;;;;;;;5.90;1.13;;;;;;;;;;5029420;28;20060;-51
2022/05/28 00:28:52;;;;;;;6.50;1.20;;;;;;;;;;5014579;28;20155;-52
2022/05/28 00:31:18;;;;;;;9.38;1.55;;;;;;;;;;5028166;28;20100;-52
2022/05/28 00:33:44;;;;;;;5.40;1.20;;;;;;;;;;5035055;28;20021;-52
2022/05/28 00:36:11;;;;;;;8.30;1.17;;;;;;;;;;5026413;28;20083;-54
2022/05/28 00:38:38;;;;;;;3.45;0.95;;;;;;;;;;5029215;28;20481;-54
2022/05/28 00:41:04;;;;;;;4.35;1.10;;;;;;;;;;5022678;28;20026;-53
2022/05/28 00:43:31;;;;;;;4.00;1.30;;;;;;;;;;5023357;28;20033;-53
2022/05/28 00:46:01;;;;;;;3.67;1.23;;;;;;;;;;5030013;28;20029;-52
2022/05/28 00:48:29;;;;;;;5.90;1.38;;;;;;;;;;5015838;28;20026;-51
2022/05/28 00:50:56;;;;;;;10.18;1.17;;;;;;;;;;5031540;28;20061;-55
2022/05/28 00:53:22;;;;;;;3.92;1.27;;;;;;;;;;5024529;28;20025;-52
2022/05/28 00:55:48;;;;;;;5.97;1.17;;;;;;;;;;5032479;28;20678;-52
2022/05/28 00:58:14;;;;;;;6.90;1.30;;;;;;;;;;5031578;28;20044;-52
2022/05/28 01:00:41;;;;;;;8.23;1.10;;;;;;;;;;5039013;28;20021;-54
2022/05/28 01:03:09;;;;;;;3.95;1.40;;;;;;;;;;5034228;28;20029;-53
2022/05/28 01:05:59;;;;;;;6.47;1.40;;;;;;;;;;5029304;28;20033;-50
2022/05/28 01:08:29;;;;;;;5.38;1.63;;;;;;;;;;5016540;28;20392;-51
2022/05/28 01:11:00;;;;;;;1.92;1.10;;;;;;;;;;5047737;28;20029;-54
2022/05/28 01:13:39;;;;;;;7.55;1.38;;;;;;;;;;5038361;28;20074;-51
2022/05/28 01:16:10;;;;;;;7.65;1.65;;;;;;;;;;5048354;28;20036;-50
2022/05/28 01:18:47;;;;;;;4.80;1.02;;;;;;;;;;5048939;28;20027;-51
2022/05/28 01:21:19;;;;;;;7.88;1.30;;;;;;;;;;5038543;28;20087;-53
2022/05/28 01:23:54;;;;;;;4.15;1.45;;;;;;;;;;5050633;28;20025;-54
2022/05/28 01:26:32;;;;;;;6.20;0.90;;;;;;;;;;5037501;28;20029;-54
2022/05/28 01:29:01;;;;;;;8.25;1.27;;;;;;;;;;5042713;28;20456;-52
2022/05/28 01:31:28;;;;;;;5.70;1.23;;;;;;;;;;5042035;28;20026;-54
2022/05/28 01:33:55;;;;;;;3.78;1.25;;;;;;;;;;5047599;28;20079;-51
2022/05/28 01:36:22;;;;;;;5.45;1.73;;;;;;;;;;5049930;28;20029;-52
2022/05/28 01:38:48;;;;;;;4.93;1.38;;;;;;;;;;5049950;28;20426;-52
2022/05/28 01:41:15;;;;;;;3.03;0.90;;;;;;;;;;5050076;28;20108;-53
2022/05/28 01:43:42;;;;;;;4.00;1.45;;;;;;;;;;5038571;28;20366;-52
2022/05/28 01:46:09;;;;;;;6.60;1.08;;;;;;;;;;5050588;28;20037;-53
2022/05/28 01:48:37;;;;;;;6.35;1.23;;;;;;;;;;5047421;28;20049;-53
2022/05/28 01:51:04;;;;;;;7.95;0.95;;;;;;;;;;5046180;28;20209;-54
2022/05/28 01:56:15;;;;;;;6.45;1.10;;;;;;;;;;5051204;28;20110;-52
2022/05/28 01:58:41;;;;;;;5.78;1.10;;;;;;;;;;5043714;28;20030;-50
2022/05/28 02:01:08;;;;;;;10.32;1.60;;;;;;;;;;5047586;28;20025;-51
2022/05/28 02:03:36;;;;;;;6.65;1.25;;;;;;;;;;5045240;28;20049;-53
2022/05/28 02:06:02;;;;;;;9.80;2.17;;;;;;;;;;5037073;28;20037;-51
2022/05/28 02:08:30;;;;;;;15.85;2.03;;;;;;;;;;5045185;28;20742;-52
2022/05/28 02:11:06;;;;;;;4.65;1.20;;;;;;;;;;5044325;28;20025;-53
2022/05/28 02:13:38;;;;;;;3.95;1.08;;;;;;;;;;5049532;28;20036;-54
2022/05/28 02:16:09;;;;;;;3.80;1.20;;;;;;;;;;5046118;28;20378;-52
2022/05/28 02:18:50;;;;;;;8.20;1.33;;;;;;;;;;5041470;28;20429;-52
2022/05/28 02:21:18;;;;;;;7.75;1.30;;;;;;;;;;5052712;28;20061;-55
2022/05/28 02:23:54;;;;;;;9.40;1.52;;;;;;;;;;5053826;28;20032;-52
2022/05/28 02:26:23;;;;;;;7.85;1.20;;;;;;;;;;5052480;28;20024;-51
2022/05/28 02:28:49;;;;;;;5.05;1.00;;;;;;;;;;5043286;28;20033;-53
2022/05/28 02:31:19;;;;;;;6.38;1.42;;;;;;;;;;5046413;28;20096;-52
2022/05/28 02:33:46;;;;;;;3.47;1.00;;;;;;;;;;5056773;28;20036;-52
2022/05/28 02:36:13;;;;;;;9.82;1.60;;;;;;;;;;5046648;28;20026;-54
2022/05/28 02:38:39;;;;;;;4.68;0.95;;;;;;;;;;5051655;28;20036;-54
2022/05/28 02:41:05;;;;;;;3.20;1.02;;;;;;;;;;5053130;28;20086;-51
2022/05/28 02:43:31;;;;;;;4.45;1.42;;;;;;;;;;5045956;28;20055;-54
2022/05/28 02:45:57;;;;;;;8.02;1.00;;;;;;;;;;5051149;28;20033;-53
2022/05/28 02:48:23;;;;;;;3.90;1.23;;;;;;;;;;5035940;28;20477;-52
2022/05/28 02:50:49;;;;;;;5.28;1.05;;;;;;;;;;5045098;28;20113;-54
2022/05/28 02:53:15;;;;;;;14.32;1.50;;;;;;;;;;5051685;28;20029;-51
2022/05/28 02:55:42;;;;;;;9.77;1.27;;;;;;;;;;5051895;28;20025;-52
2022/05/28 02:58:08;;;;;;;5.55;1.00;;;;;;;;;;5053070;28;20447;-51
2022/05/28 03:00:34;;;;;;;6.38;1.40;;;;;;;;;;5052500;28;20029;-52
2022/05/28 03:03:00;;;;;;;8.10;1.20;;;;;;;;;;5049588;28;20044;-53
2022/05/28 03:05:26;;;;;;;6.30;1.27;;;;;;;;;;5052772;28;20079;-51
2022/05/28 03:07:52;;;;;;;5.80;1.35;;;;;;;;;;5046195;28;20075;-50
2022/05/28 03:10:18;;;;;;;9.25;2.00;;;;;;;;;;5049231;28;20496;-52
2022/05/28 03:12:45;;;;;;;9.35;1.27;;;;;;;;;;5052690;28;20146;-52
2022/05/28 03:15:11;;;;;;;3.25;1.00;;;;;;;;;;5042551;28;20108;-55
2022/05/28 03:17:37;;;;;;;9.00;1.58;;;;;;;;;;5047737;28;20035;-55
2022/05/28 03:20:04;;;;;;;6.15;1.05;;;;;;;;;;5047969;28;20025;-50
2022/05/28 03:22:31;;;;;;;6.55;1.50;;;;;;;;;;5049538;28;20498;-53
2022/05/28 03:24:57;;;;;;;6.00;1.20;;;;;;;;;;5028003;28;20122;-52
2022/05/28 03:27:24;;;;;;;5.10;1.55;;;;;;;;;;5039887;28;20035;-51
2022/05/28 03:29:50;;;;;;;5.55;1.48;;;;;;;;;;5042507;28;20036;-53
2022/05/28 03:32:15;;;;;;;6.97;1.20;;;;;;;;;;5052774;28;20021;-54
2022/05/28 03:34:41;;;;;;;8.23;1.67;;;;;;;;;;5047876;28;20032;-51
2022/05/28 03:37:07;;;;;;;4.78;1.20;;;;;;;;;;5052279;28;20178;-53
2022/05/28 03:39:33;;;;;;;10.38;1.40;;;;;;;;;;5043445;28;20040;-50
2022/05/28 03:41:59;;;;;;;2.90;1.10;;;;;;;;;;5049700;28;20455;-53
2022/05/28 03:44:25;;;;;;;6.00;1.25;;;;;;;;;;5051584;28;20040;-53
2022/05/28 03:46:51;;;;;;;6.15;1.05;;;;;;;;;;5036577;28;20107;-52
2022/05/28 03:49:22;;;;;;;5.65;1.27;;;;;;;;;;5046730;28;20017;-51
2022/05/28 03:51:48;;;;;;;4.97;1.10;;;;;;;;;;5050827;28;20061;-52
2022/05/28 03:54:14;;;;;;;3.80;1.30;;;;;;;;;;5048531;28;20029;-54
2022/05/28 03:56:41;;;;;;;5.65;1.90;;;;;;;;;;5029988;28;20542;-55
2022/05/28 03:59:08;;;;;;;6.50;1.10;;;;;;;;;;5043566;28;20037;-53
2022/05/28 04:01:34;;;;;;;9.10;1.35;;;;;;;;;;5051725;28;20025;-53
2022/05/28 04:04:00;;;;;;;7.88;2.22;;;;;;;;;;5037300;28;20026;-55
2022/05/28 04:06:26;;;;;;;6.35;1.10;;;;;;;;;;5047328;28;20384;-52
2022/05/28 04:08:52;;;;;;;5.10;1.17;;;;;;;;;;5044826;28;20546;-53
2022/05/28 04:11:18;;;;;;;3.40;1.45;;;;;;;;;;5037112;28;20028;-51
2022/05/28 04:13:45;;;;;;;8.20;1.38;;;;;;;;;;5029890;28;20490;-54
2022/05/28 04:16:11;;;;;;;5.05;1.10;;;;;;;;;;5049527;28;20021;-54
2022/05/28 04:18:37;;;;;;;4.88;1.13;;;;;;;;;;5049484;28;20582;-50
2022/05/28 04:21:03;;;;;;;6.75;1.27;;;;;;;;;;5050957;28;20035;-51
2022/05/28 04:23:29;;;;;;;4.68;1.02;;;;;;;;;;5048349;28;20516;-51
2022/05/28 04:25:55;;;;;;;5.00;1.20;;;;;;;;;;5041572;28;20040;-53
2022/05/28 04:28:21;;;;;;;5.85;1.48;;;;;;;;;;5040141;28;20044;-53
2022/05/28 04:30:47;;;;;;;8.55;1.27;;;;;;;;;;5048500;28;20029;-55
2022/05/28 04:33:13;;;;;;;11.13;1.30;;;;;;;;;;5038692;28;20468;-52
2022/05/28 04:35:39;;;;;;;7.50;1.08;;;;;;;;;;5050359;28;20424;-51
2022/05/28 04:38:05;;;;;;;3.55;0.90;;;;;;;;;;5044511;28;20034;-53
2022/05/28 04:40:31;;;;;;;5.97;1.33;;;;;;;;;;5018338;28;20519;-54
2022/05/28 04:42:57;;;;;;;2.78;1.33;;;;;;;;;;5043065;28;20025;-51
2022/05/28 04:45:23;;;;;;;5.13;1.05;;;;;;;;;;5029469;28;20136;-50
2022/05/28 04:47:49;;;;;;;4.68;1.17;;;;;;;;;;5043349;28;20048;-55
2022/05/28 04:50:15;;;;;;;4.60;1.60;;;;;;;;;;5045490;28;20021;-54
2022/05/28 04:52:41;;;;;;;2.88;1.10;;;;;;;;;;5047213;28;20025;-53
2022/05/28 04:55:08;;;;;;;2.92;1.00;;;;;;;;;;5025080;28;20061;-52
2022/05/28 04:57:34;;;;;;;4.30;1.10;;;;;;;;;;5042061;28;20480;-50
2022/05/28 05:00:00;;;;;;;4.53;0.98;;;;;;;;;;5048122;28;20025;-53
2022/05/28 05:02:26;;;;;;;2.33;1.13;;;;;;;;;;5045742;28;20067;-50
2022/05/28 05:04:56;;;;;;;6.38;1.25;;;;;;;;;;5040611;28;20025;-54
2022/05/28 05:07:22;;;;;;;5.70;1.25;;;;;;;;;;5041698;28;20577;-54
2022/05/28 05:09:48;;;;;;;4.05;1.00;;;;;;;;;;5038809;28;20079;-50
2022/05/28 05:12:14;;;;;;;2.15;0.90;;;;;;;;;;5042828;28;20393;-52
2022/05/28 05:14:40;;;;;;;5.13;1.10;;;;;;;;;;5032465;28;20029;-53
2022/05/28 05:17:05;;;;;;;6.20;1.60;;;;;;;;;;5046618;28;20028;-52
2022/05/28 05:19:31;;;;;;;4.75;1.42;;;;;;;;;;5046070;28;20079;-54
2022/05/28 05:21:57;;;;;;;8.23;1.08;;;;;;;;;;5042175;28;20111;-53
2022/05/28 05:24:24;;;;;;;3.15;0.88;;;;;;;;;;5049661;28;20040;-53
2022/05/28 05:26:50;;;;;;;3.83;0.85;;;;;;;;;;5042304;28;20036;-54
2022/05/28 05:29:16;;;;;;;3.72;0.75;;;;;;;;;;5054265;28;20053;-54
2022/05/28 05:31:42;;;;;;;2.50;0.90;;;;;;;;;;5054182;28;20118;-52
2022/05/28 05:34:08;;;;;;;3.63;1.00;;;;;;;;;;5044975;28;20151;-54
2022/05/28 05:36:34;;;;;;;2.78;0.90;;;;;;;;;;5049986;28;20089;-51
2022/05/28 05:39:00;;;;;;;5.38;0.80;;;;;;;;;;5054066;28;20499;-53
2022/05/28 05:41:26;;;;;;;6.93;1.35;;;;;;;;;;5027178;28;20037;-52
2022/05/28 05:43:52;;;;;;;3.38;0.90;;;;;;;;;;5042923;28;20085;-54
2022/05/28 05:46:18;;;;;;;4.93;1.15;;;;;;;;;;5049407;28;20033;-52
2022/05/28 05:48:45;;;;;;;2.20;0.60;;;;;;;;;;5040856;28;20035;-51
2022/05/28 05:51:12;;;;;;;4.25;0.90;;;;;;;;;;5050672;28;20035;-53
2022/05/28 05:53:38;;;;;;;5.75;1.33;;;;;;;;;;5044526;28;20032;-53
2022/05/28 05:56:05;;;;;;;7.10;1.02;;;;;;;;;;5044151;28;20028;-54
2022/05/28 05:58:31;;;;;;;7.93;1.13;;;;;;;;;;5029303;28;20037;-52
2022/05/28 06:00:57;;;;;;;5.15;0.70;;;;;;;;;;5044289;28;20380;-51
2022/05/28 06:03:23;;;;;;;2.95;0.90;;;;;;;;;;5052445;28;20035;-53
2022/05/28 06:05:49;;;;;;;2.60;0.85;;;;;;;;;;5045188;28;20033;-53
2022/05/28 06:08:15;;;;;;;3.47;0.82;;;;;;;;;;5042585;28;20106;-53
2022/05/28 06:10:42;;;;;;;8.05;0.85;;;;;;;;;;5048224;28;20100;-51
2022/05/28 06:13:08;;;;;;;5.32;1.02;;;;;;;;;;5047943;28;20032;-53
2022/05/28 06:15:34;;;;;;;2.72;0.80;;;;;;;;;;5039407;28;20501;-52
2022/05/28 06:18:00;;;;;;;2.88;0.80;;;;;;;;;;5050997;28;20029;-54
2022/05/28 06:20:26;;;;;;;4.50;0.70;;;;;;;;;;5049629;28;20496;-50
2022/05/28 06:22:52;;;;;;;1.58;0.63;;;;;;;;;;5053975;28;20503;-54
2022/05/28 06:25:18;;;;;;;2.08;0.70;;;;;;;;;;5033501;28;20064;-53
2022/05/28 06:27:47;;;;;;;4.20;1.00;;;;;;;;;;5044238;28;20025;-50
2022/05/28 06:30:13;;;;;;;3.63;1.02;;;;;;;;;;5047499;28;20125;-54
2022/05/28 06:32:39;;;;;;;7.00;1.42;;;;;;;;;;5044127;28;20505;-55
2022/05/28 06:35:05;;;;;;;4.70;1.38;;;;;;;;;;5052945;28;20028;-54
2022/05/28 06:37:31;;;;;;;6.65;1.30;;;;;;;;;;5040499;28;20033;-53
2022/05/28 06:39:57;;;;;;;3.33;0.80;;;;;;;;;;5037839;28;20078;-55
2022/05/28 06:42:23;;;;;;;5.32;1.10;;;;;;;;;;5047079;28;20025;-54
2022/05/28 06:44:49;;;;;;;4.03;1.17;;;;;;;;;;5046259;28;20048;-53
2022/05/28 06:47:15;;;;;;;2.33;0.80;;;;;;;;;;5044154;28;20035;-54
2022/05/28 06:49:41;;;;;;;9.32;1.35;;;;;;;;;;5043744;28;20465;-54
2022/05/28 06:52:07;;;;;;;7.13;1.30;;;;;;;;;;5047183;28;20036;-53
2022/05/28 06:54:33;;;;;;;3.50;0.65;;;;;;;;;;5033735;28;21065;-53
2022/05/28 06:56:59;;;;;;;9.40;1.10;;;;;;;;;;5035193;28;20029;-50
2022/05/28 06:59:25;;;;;;;3.03;0.95;;;;;;;;;;5052612;28;20029;-53
2022/05/28 07:01:51;;;;;;;2.58;1.00;;;;;;;;;;5042709;28;20028;-53
2022/05/28 07:04:17;;;;;;;7.50;1.00;;;;;;;;;;5035966;28;20037;-50
2022/05/28 07:06:43;;;;;;;4.93;1.00;;;;;;;;;;5042873;28;20164;-53
2022/05/28 07:09:09;;;;;;;6.50;1.05;;;;;;;;;;5044108;28;20032;-51
2022/05/28 07:11:35;;;;;;;4.45;1.20;;;;;;;;;;5039890;28;20052;-54
2022/05/28 07:14:01;;;;;;;3.08;0.93;;;;;;;;;;5046463;28;20075;-53
2022/05/28 07:16:27;;;;;;;3.42;0.85;;;;;;;;;;5038924;28;20022;-53
2022/05/28 07:18:53;;;;;;;4.80;0.70;;;;;;;;;;5055698;28;20085;-52
2022/05/28 07:21:20;;;;;;;3.42;1.08;;;;;;;;;;5047365;28;20428;-55
2022/05/28 07:23:45;;;;;;;3.25;0.82;;;;;;;;;;5040865;28;20472;-52
2022/05/28 07:26:13;;;;;;;3.05;0.80;;;;;;;;;;5044203;28;20028;-53
2022/05/28 07:28:41;;;;;;;3.03;1.10;;;;;;;;;;5029414;28;20042;-52
2022/05/28 07:31:11;;;;;;;4.70;0.63;;;;;;;;;;5046415;28;20040;-50
2022/05/28 07:33:39;;;;;;;5.07;0.88;;;;;;;;;;5045865;28;20484;-52
2022/05/28 07:36:05;;;;;;;2.38;0.73;;;;;;;;;;5047720;28;20423;-52
2022/05/28 07:38:32;;;;;;;4.32;0.80;;;;;;;;;;5026363;28;20042;-53
2022/05/28 07:41:02;;;;;;;5.53;0.80;;;;;;;;;;5022316;28;20043;-53
2022/05/28 07:43:28;;;;;;;6.53;1.10;;;;;;;;;;5018459;28;20132;-54
2022/05/28 07:45:54;;;;;;;6.78;1.55;;;;;;;;;;5022911;28;20408;-53
2022/05/28 07:48:20;;;;;;;2.67;1.30;;;;;;;;;;5039834;28;20029;-52
2022/05/28 07:50:46;;;;;;;5.68;0.82;;;;;;;;;;5052391;28;20457;-54
2022/05/28 07:53:13;;;;;;;3.75;0.80;;;;;;;;;;5049884;28;20010;-54
2022/05/28 07:55:39;;;;;;;8.13;1.13;;;;;;;;;;5049859;28;20108;-54
2022/05/28 07:58:06;;;;;;;4.68;0.93;;;;;;;;;;5033996;28;20540;-52
2022/05/28 08:00:32;;;;;;;7.22;0.95;;;;;;;;;;5032977;28;20086;-55
2022/05/28 08:02:58;;;;;;;2.80;1.05;;;;;;;;;;5040443;28;20033;-54
2022/05/28 08:05:24;;;;;;;4.72;2.05;;;;;;;;;;5037063;28;20456;-55
2022/05/28 08:07:50;;;;;;;3.35;1.27;;;;;;;;;;5030854;28;20045;-55
2022/05/28 08:10:16;;;;;;;6.07;0.77;;;;;;;;;;5048174;28;20033;-54
2022/05/28 08:12:41;;;;;;;4.13;1.00;;;;;;;;;;5063470;28;20396;-55
2022/05/28 08:15:08;;;;;;;2.85;1.00;;;;;;;;;;5041099;28;20469;-53
2022/05/28 08:17:34;;;;;;;5.25;1.08;;;;;;;;;;5035838;28;20057;-54
2022/05/28 08:20:00;;;;;;;5.90;1.13;;;;;;;;;;5043751;28;20064;-54
2022/05/28 08:25:11;;;;;;;6.82;1.25;;;;;;;;;;5034300;28;20087;-52
2022/05/28 08:27:37;;;;;;;4.82;0.93;;;;;;;;;;5054156;28;20028;-53
2022/05/28 08:30:04;;;;;;;3.35;1.00;;;;;;;;;;5047721;28;20472;-54
2022/05/28 08:32:30;;;;;;;5.38;1.27;;;;;;;;;;5039848;28;20026;-55
2022/05/28 08:34:56;;;;;;;5.25;0.88;;;;;;;;;;5039274;28;20036;-52
2022/05/28 08:37:22;;;;;;;5.88;1.67;;;;;;;;;;5041415;28;20142;-53
2022/05/28 08:39:47;;;;;;;3.08;0.90;;;;;;;;;;5028679;28;20040;-53
2022/05/28 08:42:14;;;;;;;3.10;0.98;;;;;;;;;;5047739;28;20029;-53
2022/05/28 08:44:41;;;;;;;4.75;1.00;;;;;;;;;;5040556;28;20035;-54
2022/05/28 08:47:14;;;;;;;5.05;1.15;;;;;;;;;;5032502;28;20033;-55
2022/05/28 08:49:40;;;;;;;3.58;0.90;;;;;;;;;;5041045;28;20380;-55
2022/05/28 08:52:10;;;;;;;3.38;1.08;;;;;;;;;;5049685;28;20025;-54
2022/05/28 08:54:56;;;;;;;3.20;0.80;;;;;;;;;;5037713;28;20025;-53
2022/05/28 08:57:26;;;;;;;3.60;0.98;;;;;;;;;;5048047;28;20365;-55
2022/05/28 08:59:59;;;;;;;5.50;1.35;;;;;;;;;;5034161;28;20037;-53
2022/05/28 09:02:45;;;;;;;2.53;1.08;;;;;;;;;;5034623;28;20035;-53
2022/05/28 09:05:23;;;;;;;4.07;0.98;;;;;;;;;;5022393;28;20037;-55
2022/05/28 09:07:50;;;;;;;8.05;1.58;;;;;;;;;;5029625;28;20053;-55
2022/05/28 09:10:16;;;;;;;3.30;0.75;;;;;;;;;;5020367;28;20030;-55
2022/05/28 09:12:45;;;;;;;5.53;0.80;;;;;;;;;;5022621;28;20030;-55
2022/05/28 09:15:11;;;;;;;4.80;1.05;;;;;;;;;;5015808;28;20069;-55
2022/05/28 09:17:39;;;;;;;3.20;1.00;;;;;;;;;;5015781;28;20361;-54
2022/05/28 09:20:08;;;;;;;10.00;1.65;;;;;;;;;;5017247;28;20080;-55
2022/05/28 09:22:34;;;;;;;7.03;1.27;;;;;;;;;;5020326;28;20108;-55
2022/05/28 09:25:00;;;;;;;7.05;1.42;;;;;;;;;;5019640;28;20120;-55
2022/05/28 09:27:47;;;;;;;3.65;1.17;;;;;;;;;;5020085;28;20033;-55
2022/05/28 09:30:25;;;;;;;2.50;1.00;;;;;;;;;;5022074;28;20113;-55
2022/05/28 09:33:13;;;;;;;5.25;1.25;;;;;;;;;;5018168;28;20034;-53
2022/05/28 09:36:08;;;;;;;5.25;1.60;;;;;;;;;;5025774;28;20036;-55
2022/05/28 09:38:40;;;;;;;5.60;0.90;;;;;;;;;;5003825;28;20493;-54
2022/05/28 09:41:18;;;;;;;3.08;1.08;;;;;;;;;;5028030;28;20014;-55
2022/05/28 09:43:44;;;;;;;5.60;1.15;;;;;;;;;;5024447;28;20095;-55
2022/05/28 09:46:27;;;;;;;5.13;1.00;;;;;;;;;;5018272;28;20440;-55
2022/05/28 09:49:11;;;;;;;4.85;0.70;;;;;;;;;;5019147;28;20087;-53
2022/05/28 09:51:37;;;;;;;4.38;0.68;;;;;;;;;;5015393;28;20037;-54
2022/05/28 09:54:23;;;;;;;2.13;0.75;;;;;;;;;;5026018;28;20029;-53
2022/05/28 09:57:25;;;;;;;6.22;0.70;;;;;;;;;;5015920;28;20040;-53
2022/05/28 09:59:55;;;;;;;5.10;1.00;;;;;;;;;;4927557;29;20036;-53
2022/05/28 10:02:26;;;;;;;2.75;0.90;;;;;;;;;;5002486;28;20042;-55
2022/05/28 10:05:11;;;;;;;3.08;1.00;;;;;;;;;;5020872;28;20548;-55
2022/05/28 10:07:57;;;;;;;3.55;1.27;;;;;;;;;;5019300;28;20050;-53
2022/05/28 10:10:29;;;;;;;7.82;1.10;;;;;;;;;;5021132;28;20029;-54
2022/05/28 10:13:10;;;;;;;6.10;0.93;;;;;;;;;;5019223;28;20065;-55
2022/05/28 10:15:43;;;;;;;6.55;0.88;;;;;;;;;;5029775;28;24247;-55
2022/05/28 10:18:13;;;;;;;5.32;1.35;;;;;;;;;;5032071;28;20033;-54
2022/05/28 10:20:39;;;;;;;5.65;1.40;;;;;;;;;;5022397;28;20071;-54
2022/05/28 10:23:11;;;;;;;5.70;0.80;;;;;;;;;;5026225;28;20562;-55
2022/05/28 10:25:39;;;;;;;3.38;1.05;;;;;;;;;;5033403;28;20116;-54
2022/05/28 10:28:09;;;;;;;2.58;0.90;;;;;;;;;;5030706;28;20030;-53
2022/05/28 10:30:36;;;;;;;2.42;0.80;;;;;;;;;;5005922;28;20116;-54
2022/05/28 10:33:08;;;;;;;6.43;1.05;;;;;;;;;;5024692;28;20028;-55
2022/05/28 10:35:34;;;;;;;6.55;1.50;;;;;;;;;;5017378;28;20045;-55
2022/05/28 10:38:12;;;;;;;4.13;1.25;;;;;;;;;;5022842;28;20040;-55
2022/05/28 10:40:49;;;;;;;2.95;0.80;;;;;;;;;;5025455;28;20516;-54
2022/05/28 10:43:24;;;;;;;3.75;0.90;;;;;;;;;;5024093;28;20484;-53
2022/05/28 10:45:55;;;;;;;2.97;0.80;;;;;;;;;;5023171;28;20025;-53
2022/05/28 10:48:31;;;;;;;2.72;1.10;;;;;;;;;;5021392;28;20334;-53
2022/05/28 10:51:01;;;;;;;5.82;1.13;;;;;;;;;;5020637;28;20028;-54
2022/05/28 10:53:34;;;;;;;7.90;1.45;;;;;;;;;;5030246;28;20074;-54
2022/05/28 10:56:00;;;;;;;6.93;1.20;;;;;;;;;;5015944;28;20034;-54
2022/05/28 10:58:36;;;;;;;4.03;1.10;;;;;;;;;;5027550;28;20025;-55
2022/05/28 11:01:12;;;;;;;5.57;1.00;;;;;;;;;;5028122;28;20044;-55
2022/05/28 11:03:41;;;;;;;3.03;0.77;;;;;;;;;;5018021;28;20040;-52
2022/05/28 11:06:20;;;;;;;4.43;0.77;;;;;;;;;;5029321;28;20037;-53
2022/05/28 11:08:53;;;;;;;4.65;1.23;;;;;;;;;;5020794;28;20072;-55
2022/05/28 11:11:19;;;;;;;;;;;;;;;;;;5017330;28;20037;-56
2022/05/28 11:13:53;;;;;;;5.90;1.23;;;;;;;;;;5033229;28;19951;-55
2022/05/28 11:16:22;;;;;;;5.30;0.95;;;;;;;;;;5028463;28;20504;-55
2022/05/28 11:19:00;;;;;;;2.92;1.00;;;;;;;;;;5025566;28;20029;-55
2022/05/28 11:21:35;;;;;;;2.88;1.05;;;;;;;;;;5032174;28;20038;-53
2022/05/28 11:24:20;;;;;;;4.85;1.00;;;;;;;;;;5024979;28;20040;-54
2022/05/28 11:26:53;;;;;;;5.10;1.50;;;;;;;;;;5014022;28;20026;-55
2022/05/28 11:29:35;;;;;;;7.53;1.48;;;;;;;;;;5027975;28;20021;-55
2022/05/28 11:32:04;;;;;;;5.35;1.05;;;;;;;;;;5032007;28;20028;-54
2022/05/28 11:34:33;;;;;;;3.17;0.80;;;;;;;;;;5025713;28;20484;-55
2022/05/28 11:37:05;;;;;;;3.75;0.90;;;;;;;;;;5014662;28;20538;-55
2022/05/28 11:39:47;;;;;;;2.60;0.80;;;;;;;;;;5032716;28;20026;-54
2022/05/28 11:42:22;;;;;;;7.45;1.60;;;;;;;;;;5032384;28;20533;-55
2022/05/28 11:44:50;;;;;;;4.90;0.93;;;;;;;;;;5032351;28;20025;-53
2022/05/28 11:47:40;;;;;;;2.78;0.77;;;;;;;;;;5024018;28;20104;-55
2022/05/28 11:53:13;;;;;;;3.97;0.70;;;;;;;;;;5028334;28;20393;-53
2022/05/28 11:55:42;;;;;;;3.13;0.90;;;;;;;;;;5031817;28;20021;-55
2022/05/28 11:58:16;;;;;;;4.07;0.50;;;;;;;;;;5032123;28;20021;-55
2022/05/28 12:00:42;;;;;;;3.90;0.88;;;;;;;;;;5018817;28;20088;-55
2022/05/28 12:03:19;;;;;;;2.58;0.90;;;;;;;;;;5031992;28;20033;-55
2022/05/28 12:06:07;;;;;;;5.63;1.35;;;;;;;;;;5026334;28;20515;-54
2022/05/28 12:08:38;;;;;;;5.68;1.33;;;;;;;;;;5027626;28;20132;-53
2022/05/28 12:11:06;;;;;;;2.65;0.80;;;;;;;;;;5032054;28;20029;-56
2022/05/28 12:13:36;;;;;;;5.57;0.75;;;;;;;;;;5031877;28;20022;-56
2022/05/28 12:16:08;;;;;;;2.90;0.45;;;;;;;;;;5031457;28;20079;-56
2022/05/28 12:18:34;;;;;;;5.82;1.17;;;;;;;;;;5031734;28;20040;-56
2022/05/28 12:21:01;;;;;;;3.42;0.82;;;;;;;;;;5027568;28;20033;-56
2022/05/28 12:23:31;;;;;;;4.60;0.80;;;;;;;;;;5027818;28;20032;-53
2022/05/28 12:25:57;;;;;;;3.58;0.90;;;;;;;;;;5031630;28;20033;-54
2022/05/28 12:28:25;;;;;;;4.35;1.08;;;;;;;;;;5030906;28;20476;-55
2022/05/28 12:30:53;;;;;;;8.43;0.90;;;;;;;;;;5030676;28;20094;-54
2022/05/28 12:33:30;;;;;;;5.38;0.95;;;;;;;;;;5031602;28;20044;-55
2022/05/28 12:36:09;;;;;;;2.85;0.65;;;;;;;;;;5026443;28;20163;-54
2022/05/28 12:38:50;;;;;;;1.95;0.57;;;;;;;;;;5019404;28;20064;-53
2022/05/28 12:41:21;;;;;;;1.65;0.60;;;;;;;;;;5031008;28;20033;-54
2022/05/28 12:43:59;;;;;;;3.55;0.60;;;;;;;;;;5031497;28;20080;-54
2022/05/28 12:46:39;;;;;;;1.73;0.60;;;;;;;;;;5029226;28;20480;-54
2022/05/28 12:49:07;;;;;;;2.67;0.50;;;;;;;;;;5018402;28;20075;-52
2022/05/28 12:51:48;;;;;;;1.48;0.50;;;;;;;;;;5028151;28;20498;-55
2022/05/28 12:54:28;;;;;;;4.18;0.95;;;;;;;;;;5031511;28;20029;-55
2022/05/28 12:57:06;;;;;;;2.13;0.40;;;;;;;;;;5031123;28;20024;-55
2022/05/28 12:59:33;;;;;;;3.00;0.50;;;;;;;;;;5028685;28;20083;-54
2022/05/28 13:02:18;;;;;;;2.10;0.70;;;;;;;;;;5030574;28;20056;-54
2022/05/28 13:04:48;;;;;;;2.70;0.63;;;;;;;;;;5026703;28;20040;-53
2022/05/28 13:07:23;;;;;;;3.00;0.50;;;;;;;;;;5035843;28;20526;-52
2022/05/28 13:09:54;;;;;;;1.15;0.47;;;;;;;;;;5047884;28;20037;-54
2022/05/28 13:12:26;;;;;;;3.15;0.60;;;;;;;;;;5050933;28;20669;-54
2022/05/28 13:15:04;;;;;;;3.50;0.55;;;;;;;;;;5050101;28;20456;-54
2022/05/28 13:17:49;;;;;;;2.30;0.70;;;;;;;;;;5033937;28;20072;-56
2022/05/28 13:20:23;;;;;;;4.15;0.73;;;;;;;;;;5036415;28;20139;-55
2022/05/28 13:22:58;;;;;;;2.65;0.60;;;;;;;;;;5033007;28;20033;-55
2022/05/28 13:25:45;;;;;;;2.20;0.60;;;;;;;;;;5042891;28;20094;-55
2022/05/28 13:28:11;;;;;;;4.30;0.40;;;;;;;;;;5037195;28;20485;-55
2022/05/28 13:30:38;;;;;;;4.05;0.68;;;;;;;;;;5042301;28;20029;-55
2022/05/28 13:33:10;;;;;;;1.60;0.50;;;;;;;;;;5050531;28;20154;-56
2022/05/28 13:35:46;;;;;;;0.80;0.38;;;;;;;;;;5033324;28;20022;-55
2022/05/28 13:38:12;;;;;;;3.53;0.63;;;;;;;;;;5042385;28;20036;-57
2022/05/28 13:40:41;;;;;;;1.92;0.38;;;;;;;;;;5043250;28;20025;-56
2022/05/28 13:43:09;;;;;;;1.98;0.40;;;;;;;;;;5050564;28;20033;-57
2022/05/28 13:45:37;;;;;;;1.38;0.38;;;;;;;;;;5027437;28;20026;-57
2022/05/28 13:48:09;;;;;;;2.40;0.82;;;;;;;;;;5025243;28;20515;-57
2022/05/28 13:50:40;;;;;;;4.95;0.47;;;;;;;;;;5047160;28;20079;-56
2022/05/28 13:53:07;;;;;;;4.90;0.60;;;;;;;;;;5046564;28;20025;-57
2022/05/28 13:55:38;;;;;;;4.68;1.27;;;;;;;;;;5040230;28;20049;-57
2022/05/28 13:58:14;;;;;;;10.20;0.43;;;;;;;;;;5040746;28;20033;-54
2022/05/28 14:00:41;;;;;;;4.63;0.63;;;;;;;;;;5030948;28;20468;-56
2022/05/28 14:03:07;;;;;;;3.83;0.63;;;;;;;;;;5040935;28;20025;-57
2022/05/28 14:05:41;;;;;;;2.45;0.60;;;;;;;;;;5047460;28;20091;-56
2022/05/28 14:08:14;;;;;;;1.92;0.60;;;;;;;;;;5028335;28;20034;-56
2022/05/28 14:10:41;;;;;;;4.65;0.60;;;;;;;;;;5026702;28;20032;-55
2022/05/28 14:13:17;;;;;;;2.65;0.50;;;;;;;;;;5026902;28;20459;-57
2022/05/28 14:15:48;;;;;;;2.00;0.70;;;;;;;;;;5018438;28;20524;-56
2022/05/28 14:18:18;;;;;;;7.30;0.80;;;;;;;;;;5017618;28;20416;-55
2022/05/28 14:20:44;;;;;;;8.20;1.40;;;;;;;;;;5031363;28;20493;-53
2022/05/28 14:23:10;;;;;;;8.18;1.23;;;;;;;;;;5033870;28;20037;-55
2022/05/28 14:25:37;;;;;;;3.45;0.82;;;;;;;;;;5033881;28;20034;-57
2022/05/28 14:28:07;;;;;;;5.40;0.90;;;;;;;;;;5033586;28;20059;-55
2022/05/28 14:30:34;;;;;;;4.68;1.05;;;;;;;;;;4999436;28;20129;-57
2022/05/28 14:33:00;;;;;;;3.22;0.50;;;;;;;;;;5032633;28;20033;-58
2022/05/28 14:35:43;;;;;;;7.07;1.05;;;;;;;;;;5031859;28;20028;-56
2022/05/28 14:38:10;;;;;;;2.28;0.55;;;;;;;;;;5032877;28;20086;-56
2022/05/28 14:40:38;;;;;;;4.45;0.90;;;;;;;;;;5026689;28;20033;-57
2022/05/28 14:43:05;;;;;;;2.53;0.73;;;;;;;;;;5033654;28;20029;-56
2022/05/28 14:45:37;;;;;;;5.47;0.90;;;;;;;;;;5029831;28;20039;-56
2022/05/28 14:48:06;;;;;;;6.30;1.33;;;;;;;;;;5023155;28;20030;-57
2022/05/28 14:50:35;;;;;;;9.55;1.65;;;;;;;;;;5035007;28;20059;-56
2022/05/28 14:53:02;;;;;;;5.47;0.88;;;;;;;;;;5020739;28;20026;-56
2022/05/28 14:55:30;;;;;;;2.90;0.85;;;;;;;;;;5021599;28;20034;-55
2022/05/28 14:58:04;;;;;;;6.15;0.70;;;;;;;;;;5025737;28;20131;-55
2022/05/28 15:00:32;;;;;;;4.43;1.20;;;;;;;;;;5026919;28;20047;-55
2022/05/28 15:03:10;;;;;;;5.10;0.98;;;;;;;;;;5027168;28;20022;-56
2022/05/28 15:05:36;;;;;;;4.00;1.40;;;;;;;;;;5034409;28;20425;-55